createdAt,value
2022-08-03T00:05:37.379Z,8.27
2022-08-03T00:11:24.491Z,15.60
2022-08-03T00:17:11.441Z,13.80
2022-08-03T00:22:58.380Z,19.98
2022-08-03T00:28:45.106Z,9.45
2022-08-03T00:34:57.946Z,16.75
2022-08-03T00:40:39.330Z,6.85
2022-08-03T00:46:26.188Z,8.68
2022-08-03T00:52:14.021Z,12.07
2022-08-03T00:58:05.012Z,20.38
2022-08-03T01:03:51.838Z,12.23
2022-08-03T01:09:48.951Z,9.57
2022-08-03T01:15:45.811Z,12.48
2022-08-03T01:21:40.500Z,18.45
2022-08-03T01:28:05.222Z,12.82
2022-08-03T01:34:00.375Z,10.13
2022-08-03T01:39:49.131Z,12.57
2022-08-03T01:45:37.387Z,13.60
2022-08-03T01:51:24.279Z,14.18
2022-08-03T01:57:31.337Z,13.52
2022-08-03T02:03:20.203Z,9.43
2022-08-03T02:09:08.109Z,13.82
2022-08-03T02:14:57.031Z,18.85
2022-08-03T02:20:47.714Z,12.57
2022-08-03T02:26:38.514Z,22.23
2022-08-03T02:32:31.397Z,17.45
2022-08-03T02:38:21.229Z,21.13
2022-08-03T02:44:10.956Z,25.08
2022-08-03T02:49:59.884Z,20.73
2022-08-03T02:55:47.645Z,19.23
2022-08-03T03:01:34.394Z,17.02
2022-08-03T03:07:21.627Z,22.90
2022-08-03T03:13:09.689Z,11.40
2022-08-03T03:18:58.518Z,21.02
2022-08-03T03:24:47.357Z,15.32
2022-08-03T03:30:34.785Z,15.80
2022-08-03T03:36:21.653Z,13.40
2022-08-03T03:42:08.560Z,13.85
2022-08-03T03:47:55.330Z,17.67
2022-08-03T03:53:54.726Z,14.45
2022-08-03T03:59:43.609Z,19.58
2022-08-03T04:05:48.982Z,19.67
2022-08-03T04:11:43.747Z,11.77
2022-08-03T04:17:31.769Z,12.15
2022-08-03T04:23:22.361Z,10.52
2022-08-03T04:29:11.493Z,15.60
2022-08-03T04:34:58.390Z,24.33
2022-08-03T04:40:46.692Z,7.38
2022-08-03T04:46:37.058Z,14.45
2022-08-03T04:52:24.440Z,9.98
2022-08-03T04:58:12.610Z,12.68
2022-08-03T05:03:59.580Z,10.27
2022-08-03T05:09:50.620Z,13.00
2022-08-03T05:15:43.135Z,8.93
2022-08-03T05:21:41.663Z,15.35
2022-08-03T05:27:36.970Z,16.60
2022-08-03T05:33:23.718Z,19.48
2022-08-03T05:39:10.548Z,13.98
2022-08-03T05:44:57.391Z,14.10
2022-08-03T05:50:44.782Z,15.13
2022-08-03T05:56:31.880Z,15.93
2022-08-03T06:02:18.900Z,18.38
2022-08-03T06:08:06.062Z,24.42
2022-08-03T06:13:52.938Z,10.20
2022-08-03T06:19:40.031Z,10.82
2022-08-03T06:25:27.666Z,11.30
2022-08-03T06:31:14.562Z,7.05
2022-08-03T06:37:02.287Z,12.07
2022-08-03T06:42:53.496Z,6.22
2022-08-03T06:48:41.922Z,6.03
2022-08-03T06:54:30.203Z,5.45
2022-08-03T07:00:20.269Z,7.57
2022-08-03T07:06:07.690Z,6.78
2022-08-03T07:11:55.351Z,18.85
2022-08-03T07:17:42.192Z,4.22
2022-08-03T07:23:28.913Z,5.57
2022-08-03T07:29:18.177Z,3.03
2022-08-03T07:35:08.768Z,4.88
2022-08-03T07:41:11.068Z,3.35
2022-08-03T07:46:58.009Z,3.67
2022-08-03T07:52:47.982Z,3.90
2022-08-03T07:58:36.430Z,2.35
2022-08-03T08:04:23.834Z,7.80
2022-08-03T08:10:11.315Z,6.35
2022-08-03T08:15:58.213Z,1.42
2022-08-03T08:21:53.412Z,1.05
2022-08-03T08:28:29.459Z,2.15
2022-08-03T08:34:04.639Z,1.13
2022-08-03T08:39:59.536Z,3.42
2022-08-03T08:45:52.131Z,1.50
2022-08-03T08:58:01.633Z,0.70
2022-08-03T09:03:49.766Z,0.50
2022-08-03T09:10:11.872Z,1.33
2022-08-03T09:16:00.615Z,0.52
2022-08-03T09:22:17.626Z,0.80
2022-08-03T09:28:11.269Z,6.05
2022-08-03T09:34:01.297Z,1.10
2022-08-03T09:39:48.134Z,2.92
2022-08-03T09:45:36.853Z,2.97
2022-08-03T09:51:33.263Z,1.42
2022-08-03T09:57:31.924Z,1.05
2022-08-03T10:03:18.610Z,3.00
2022-08-03T10:09:09.657Z,3.75
2022-08-03T10:14:56.478Z,5.97
2022-08-03T10:20:54.541Z,4.47
2022-08-03T10:26:49.590Z,0.75
2022-08-03T10:32:57.529Z,2.58
2022-08-03T10:38:52.991Z,1.10
2022-08-03T10:44:42.391Z,0.57
2022-08-03T10:50:29.533Z,2.47
2022-08-03T10:56:54.670Z,1.90
2022-08-03T11:03:11.563Z,2.60
2022-08-03T11:09:10.901Z,4.35
2022-08-03T11:15:03.613Z,1.98
2022-08-03T11:20:50.378Z,1.08
2022-08-03T11:26:37.193Z,2.72
2022-08-03T11:32:46.846Z,2.05
2022-08-03T11:38:35.464Z,5.20
2022-08-03T11:44:41.544Z,2.17
2022-08-03T11:50:38.152Z,4.53
2022-08-03T11:56:25.694Z,1.00
2022-08-03T12:02:23.573Z,2.92
2022-08-03T12:08:33.088Z,1.88
2022-08-03T12:14:50.547Z,4.03
2022-08-03T12:20:35.220Z,6.43
2022-08-03T12:26:22.252Z,1.73
2022-08-03T12:32:14.793Z,2.72
2022-08-03T12:38:07.692Z,1.08
2022-08-03T12:43:55.176Z,0.68
2022-08-03T12:49:46.673Z,0.80
2022-08-03T12:55:57.901Z,2.57
2022-08-03T13:01:54.809Z,2.38
2022-08-03T13:07:54.541Z,5.07
2022-08-03T13:13:41.529Z,8.45
2022-08-03T13:19:28.493Z,0.75
2022-08-03T13:25:15.395Z,8.85
2022-08-03T13:31:02.523Z,3.00
2022-08-03T13:37:08.359Z,7.93
2022-08-03T13:42:56.455Z,2.03
2022-08-03T13:48:43.353Z,2.47
2022-08-03T13:54:30.826Z,4.38
2022-08-03T14:00:26.632Z,4.60
2022-08-03T14:06:16.032Z,3.15
2022-08-03T14:12:07.226Z,1.55
2022-08-03T14:17:58.793Z,3.45
2022-08-03T14:23:45.811Z,2.10
2022-08-03T14:29:32.671Z,4.57
2022-08-03T14:35:19.446Z,5.53
2022-08-03T14:41:12.068Z,6.22
2022-08-03T14:47:06.754Z,2.63
2022-08-03T14:52:53.796Z,6.85
2022-08-03T14:58:40.727Z,3.05
2022-08-03T15:04:30.055Z,2.50
2022-08-03T15:10:17.461Z,1.65
2022-08-03T15:16:04.702Z,6.78
2022-08-03T15:21:51.533Z,3.38
2022-08-03T15:28:03.941Z,8.48
2022-08-03T15:33:46.150Z,8.23
2022-08-03T15:39:33.358Z,9.57
2022-08-03T15:45:42.042Z,5.25
2022-08-03T15:51:28.887Z,3.90
2022-08-03T15:57:15.557Z,3.13
2022-08-03T16:03:02.429Z,7.65
2022-08-03T16:08:49.180Z,1.98
2022-08-03T16:14:46.848Z,2.28
2022-08-03T16:20:38.531Z,4.20
2022-08-03T16:26:28.656Z,3.42
2022-08-03T16:32:18.824Z,4.22
2022-08-03T16:38:09.757Z,2.55
2022-08-03T16:43:57.169Z,3.03
2022-08-03T16:49:55.210Z,0.60
2022-08-03T16:55:53.676Z,5.18
2022-08-03T17:01:41.281Z,3.83
2022-08-03T17:07:30.706Z,1.98
2022-08-03T17:13:22.984Z,1.67
2022-08-03T17:19:28.887Z,2.53
2022-08-03T17:25:21.763Z,8.57
2022-08-03T17:31:31.826Z,2.33
2022-08-03T17:37:50.577Z,5.57
2022-08-03T17:44:13.761Z,5.50
2022-08-03T17:49:40.013Z,7.57
2022-08-03T17:55:56.382Z,7.65
2022-08-03T18:02:12.208Z,2.83
2022-08-03T18:08:11.682Z,1.88
2022-08-03T18:14:20.637Z,9.55
2022-08-03T18:20:34.341Z,5.25
2022-08-03T18:26:20.934Z,4.20
2022-08-03T18:32:13.705Z,5.50
2022-08-03T18:38:05.976Z,5.03
2022-08-03T18:44:06.999Z,2.58
2022-08-03T18:50:26.354Z,8.50
2022-08-03T18:56:22.267Z,5.38
2022-08-03T19:02:32.196Z,3.95
2022-08-03T19:08:36.970Z,5.85
2022-08-03T19:14:34.866Z,2.88
2022-08-03T19:20:26.562Z,9.13
2022-08-03T19:26:29.878Z,5.38
2022-08-03T19:32:23.811Z,3.92
2022-08-03T19:38:11.461Z,3.63
2022-08-03T19:44:01.816Z,4.93
2022-08-03T19:50:05.736Z,2.47
2022-08-03T19:55:59.665Z,4.80
2022-08-03T20:01:50.247Z,7.47
2022-08-03T20:07:38.814Z,4.07
2022-08-03T20:13:28.342Z,2.85
2022-08-03T20:19:21.727Z,9.63
2022-08-03T20:25:11.415Z,3.17
2022-08-03T20:31:03.710Z,3.50
2022-08-03T20:36:55.360Z,3.03
2022-08-03T20:42:42.531Z,3.47
2022-08-03T20:48:36.076Z,10.60
2022-08-03T20:54:31.576Z,8.82
2022-08-03T21:00:27.111Z,1.95
2022-08-03T21:06:27.721Z,6.57
2022-08-03T21:12:27.462Z,2.28
2022-08-03T21:18:21.179Z,12.05
2022-08-03T21:24:12.879Z,6.40
2022-08-03T21:30:06.953Z,3.67
2022-08-03T21:35:59.212Z,3.95
2022-08-03T21:41:48.564Z,3.63
2022-08-03T21:47:56.142Z,3.72
2022-08-03T21:54:04.347Z,6.53
2022-08-03T21:59:56.589Z,2.97
2022-08-03T22:05:49.666Z,4.82
2022-08-03T22:11:37.616Z,3.95
2022-08-03T22:17:54.185Z,3.90
2022-08-03T22:23:44.554Z,4.82
2022-08-03T22:29:34.304Z,5.28
2022-08-03T22:35:24.238Z,2.47
2022-08-03T22:41:11.540Z,4.53
2022-08-03T22:47:01.113Z,11.00
2022-08-03T22:52:48.025Z,2.17
2022-08-03T22:58:40.573Z,5.60
2022-08-03T23:04:29.197Z,5.25
2022-08-03T23:10:16.292Z,1.77
2022-08-03T23:16:12.259Z,3.22
2022-08-03T23:22:04.057Z,5.32
2022-08-03T23:28:05.026Z,4.35
2022-08-03T23:34:17.257Z,2.55
2022-08-03T23:40:09.963Z,2.03
2022-08-03T23:46:00.818Z,5.15
2022-08-03T23:52:01.886Z,7.05
2022-08-03T23:58:17.746Z,3.47
